sensor_id;sensor_type;location;lat;lon;timestamp;pressure;altitude;pressure_sealevel;temperature;humidity
55373;BME280;70018;47.838;16.490;2024-03-23T00:53:47;98795.81;;;10.40;58.99
55373;BME280;70018;47.838;16.490;2024-03-23T00:56:13;98795.13;;;10.46;59.40
55373;BME280;70018;47.838;16.490;2024-03-23T00:58:39;98782.25;;;10.57;58.77
55373;BME280;70018;47.838;16.490;2024-03-23T01:01:05;98776.06;;;10.64;58.81
55373;BME280;70018;47.838;16.490;2024-03-23T01:03:30;98778.00;;;10.63;58.35
55373;BME280;70018;47.838;16.490;2024-03-23T01:06:00;98777.22;;;10.63;58.42
55373;BME280;70018;47.838;16.490;2024-03-23T01:08:26;98771.25;;;10.57;58.81
55373;BME280;70018;47.838;16.490;2024-03-23T01:11:01;98770.88;;;10.59;58.86
55373;BME280;70018;47.838;16.490;2024-03-23T01:13:28;98767.66;;;10.53;58.84
55373;BME280;70018;47.838;16.490;2024-03-23T01:15:55;98775.41;;;10.41;58.67
55373;BME280;70018;47.838;16.490;2024-03-23T01:18:22;98776.31;;;10.18;59.14
55373;BME280;70018;47.838;16.490;2024-03-23T01:20:48;98770.97;;;10.03;59.40
55373;BME280;70018;47.838;16.490;2024-03-23T01:23:14;98765.31;;;9.92;59.95
55373;BME280;70018;47.838;16.490;2024-03-23T01:25:40;98768.47;;;9.91;60.51
55373;BME280;70018;47.838;16.490;2024-03-23T01:28:06;98765.13;;;10.04;59.87
55373;BME280;70018;47.838;16.490;2024-03-23T01:30:33;98777.34;;;10.10;59.97
55373;BME280;70018;47.838;16.490;2024-03-23T01:32:59;98769.22;;;10.17;59.37
55373;BME280;70018;47.838;16.490;2024-03-23T01:35:25;98771.13;;;10.13;58.88
55373;BME280;70018;47.838;16.490;2024-03-23T01:37:50;98769.50;;;10.09;59.12
55373;BME280;70018;47.838;16.490;2024-03-23T01:40:17;98761.72;;;10.14;58.91
55373;BME280;70018;47.838;16.490;2024-03-23T01:42:42;98761.91;;;10.02;59.42
55373;BME280;70018;47.838;16.490;2024-03-23T01:45:09;98759.81;;;9.92;59.54
55373;BME280;70018;47.838;16.490;2024-03-23T01:47:35;98765.22;;;9.85;59.57
55373;BME280;70018;47.838;16.490;2024-03-23T01:50:01;98749.06;;;9.80;59.72
55373;BME280;70018;47.838;16.490;2024-03-23T01:52:27;98753.41;;;9.81;59.96
55373;BME280;70018;47.838;16.490;2024-03-23T01:54:53;98749.84;;;9.81;60.31
55373;BME280;70018;47.838;16.490;2024-03-23T01:57:22;98742.00;;;9.79;59.80
55373;BME280;70018;47.838;16.490;2024-03-23T01:59:48;98734.56;;;9.83;60.03
55373;BME280;70018;47.838;16.490;2024-03-23T02:02:14;98736.91;;;9.81;60.18
55373;BME280;70018;47.838;16.490;2024-03-23T02:04:40;98728.25;;;9.79;60.62
55373;BME280;70018;47.838;16.490;2024-03-23T02:07:06;98724.31;;;9.80;60.13
55373;BME280;70018;47.838;16.490;2024-03-23T02:09:33;98720.34;;;9.78;60.32
55373;BME280;70018;47.838;16.490;2024-03-23T02:11:58;98716.84;;;9.77;60.46
55373;BME280;70018;47.838;16.490;2024-03-23T02:14:24;98723.06;;;9.74;60.38
55373;BME280;70018;47.838;16.490;2024-03-23T02:16:50;98725.84;;;9.78;60.17
55373;BME280;70018;47.838;16.490;2024-03-23T02:19:15;98721.16;;;9.78;60.65
55373;BME280;70018;47.838;16.490;2024-03-23T02:21:41;98717.97;;;9.76;60.62
55373;BME280;70018;47.838;16.490;2024-03-23T02:24:07;98710.88;;;9.75;61.22
55373;BME280;70018;47.838;16.490;2024-03-23T02:26:33;98720.22;;;9.67;60.96
55373;BME280;70018;47.838;16.490;2024-03-23T02:28:58;98714.19;;;9.58;61.47
55373;BME280;70018;47.838;16.490;2024-03-23T02:31:24;98703.84;;;9.48;60.81
55373;BME280;70018;47.838;16.490;2024-03-23T02:33:50;98692.44;;;9.46;61.59
55373;BME280;70018;47.838;16.490;2024-03-23T02:36:15;98704.25;;;9.50;61.96
55373;BME280;70018;47.838;16.490;2024-03-23T02:38:41;98702.69;;;9.49;62.22
55373;BME280;70018;47.838;16.490;2024-03-23T02:41:07;98697.13;;;9.45;61.27
55373;BME280;70018;47.838;16.490;2024-03-23T02:43:33;98697.88;;;9.42;61.23
55373;BME280;70018;47.838;16.490;2024-03-23T02:45:58;98686.03;;;9.35;61.85
55373;BME280;70018;47.838;16.490;2024-03-23T02:48:24;98694.13;;;9.28;61.92
55373;BME280;70018;47.838;16.490;2024-03-23T02:50:50;98692.16;;;9.25;62.76
55373;BME280;70018;47.838;16.490;2024-03-23T02:53:16;98693.41;;;9.31;62.82
55373;BME280;70018;47.838;16.490;2024-03-23T02:55:42;98682.88;;;9.36;63.56
55373;BME280;70018;47.838;16.490;2024-03-23T02:58:08;98676.59;;;9.36;63.12
55373;BME280;70018;47.838;16.490;2024-03-23T03:00:34;98683.38;;;9.42;63.50
55373;BME280;70018;47.838;16.490;2024-03-23T03:03:00;98675.16;;;9.45;62.74
55373;BME280;70018;47.838;16.490;2024-03-23T03:05:25;98674.69;;;9.40;62.32
55373;BME280;70018;47.838;16.490;2024-03-23T03:07:51;98661.22;;;9.31;62.21
55373;BME280;70018;47.838;16.490;2024-03-23T03:10:17;98667.88;;;9.30;62.08
55373;BME280;70018;47.838;16.490;2024-03-23T03:12:42;98669.88;;;9.33;62.90
55373;BME280;70018;47.838;16.490;2024-03-23T03:15:08;98662.50;;;9.37;62.74
55373;BME280;70018;47.838;16.490;2024-03-23T03:17:34;98657.34;;;9.36;62.29
55373;BME280;70018;47.838;16.490;2024-03-23T03:20:00;98654.63;;;9.36;62.54
55373;BME280;70018;47.838;16.490;2024-03-23T03:22:26;98660.00;;;9.29;62.41
55373;BME280;70018;47.838;16.490;2024-03-23T03:24:51;98669.31;;;9.21;61.79
55373;BME280;70018;47.838;16.490;2024-03-23T03:27:17;98660.06;;;9.06;61.91
55373;BME280;70018;47.838;16.490;2024-03-23T03:29:43;98662.25;;;8.93;62.26
55373;BME280;70018;47.838;16.490;2024-03-23T03:32:08;98657.47;;;8.90;62.43
55373;BME280;70018;47.838;16.490;2024-03-23T03:34:34;98654.69;;;8.87;62.53
55373;BME280;70018;47.838;16.490;2024-03-23T03:37:00;98649.88;;;8.80;63.51
55373;BME280;70018;47.838;16.490;2024-03-23T03:39:25;98656.97;;;8.81;63.09
55373;BME280;70018;47.838;16.490;2024-03-23T03:41:52;98655.97;;;8.70;64.00
55373;BME280;70018;47.838;16.490;2024-03-23T03:44:17;98649.97;;;8.61;63.97
55373;BME280;70018;47.838;16.490;2024-03-23T03:46:43;98648.75;;;8.59;63.68
55373;BME280;70018;47.838;16.490;2024-03-23T03:49:09;98647.44;;;8.53;63.98
55373;BME280;70018;47.838;16.490;2024-03-23T03:51:35;98639.88;;;8.43;64.01
55373;BME280;70018;47.838;16.490;2024-03-23T03:54:00;98646.72;;;8.33;63.89
55373;BME280;70018;47.838;16.490;2024-03-23T03:56:26;98649.63;;;8.21;64.83
55373;BME280;70018;47.838;16.490;2024-03-23T03:58:53;98641.16;;;8.07;64.86
55373;BME280;70018;47.838;16.490;2024-03-23T04:01:19;98636.88;;;8.09;64.88
55373;BME280;70018;47.838;16.490;2024-03-23T04:03:45;98639.03;;;8.00;65.22
55373;BME280;70018;47.838;16.490;2024-03-23T04:06:11;98627.19;;;7.93;64.88
55373;BME280;70018;47.838;16.490;2024-03-23T04:08:37;98635.69;;;7.88;64.88
55373;BME280;70018;47.838;16.490;2024-03-23T04:11:03;98636.28;;;7.77;65.23
55373;BME280;70018;47.838;16.490;2024-03-23T04:13:29;98624.16;;;7.78;66.41
55373;BME280;70018;47.838;16.490;2024-03-23T04:15:55;98615.94;;;7.78;66.82
55373;BME280;70018;47.838;16.490;2024-03-23T04:18:21;98616.94;;;7.90;66.55
55373;BME280;70018;47.838;16.490;2024-03-23T04:20:48;98624.13;;;7.98;66.71
55373;BME280;70018;47.838;16.490;2024-03-23T04:23:14;98619.09;;;8.00;65.74
55373;BME280;70018;47.838;16.490;2024-03-23T04:25:40;98623.97;;;8.10;65.34
55373;BME280;70018;47.838;16.490;2024-03-23T04:28:05;98624.41;;;8.12;65.89
55373;BME280;70018;47.838;16.490;2024-03-23T04:30:32;98621.28;;;8.13;65.05
55373;BME280;70018;47.838;16.490;2024-03-23T04:32:58;98619.81;;;8.19;65.31
55373;BME280;70018;47.838;16.490;2024-03-23T04:35:24;98622.91;;;8.18;64.68
55373;BME280;70018;47.838;16.490;2024-03-23T04:37:53;98621.34;;;8.17;64.78
55373;BME280;70018;47.838;16.490;2024-03-23T04:40:19;98616.97;;;8.12;64.51
55373;BME280;70018;47.838;16.490;2024-03-23T04:42:44;98619.63;;;8.09;64.55
55373;BME280;70018;47.838;16.490;2024-03-23T04:45:10;98623.66;;;8.15;64.39
55373;BME280;70018;47.838;16.490;2024-03-23T04:47:37;98619.44;;;8.21;64.74
55373;BME280;70018;47.838;16.490;2024-03-23T04:50:04;98615.19;;;8.23;65.32
55373;BME280;70018;47.838;16.490;2024-03-23T04:52:30;98620.78;;;8.27;64.37
55373;BME280;70018;47.838;16.490;2024-03-23T04:54:55;98617.66;;;8.28;65.05
55373;BME280;70018;47.838;16.490;2024-03-23T04:57:21;98607.91;;;8.31;64.44
55373;BME280;70018;47.838;16.490;2024-03-23T04:59:47;98602.00;;;8.29;65.28
55373;BME280;70018;47.838;16.490;2024-03-23T05:02:14;98601.38;;;8.39;63.94
55373;BME280;70018;47.838;16.490;2024-03-23T05:04:40;98589.78;;;8.49;63.91
55373;BME280;70018;47.838;16.490;2024-03-23T05:07:06;98588.13;;;8.67;64.16
55373;BME280;70018;47.838;16.490;2024-03-23T05:09:32;98589.78;;;8.75;63.32
55373;BME280;70018;47.838;16.490;2024-03-23T05:11:59;98580.16;;;8.85;63.63
55373;BME280;70018;47.838;16.490;2024-03-23T05:14:28;98585.75;;;8.95;63.31
55373;BME280;70018;47.838;16.490;2024-03-23T05:16:54;98585.75;;;8.95;62.64
55373;BME280;70018;47.838;16.490;2024-03-23T05:19:20;98585.34;;;8.93;62.77
55373;BME280;70018;47.838;16.490;2024-03-23T05:21:45;98580.50;;;9.10;62.49
55373;BME280;70018;47.838;16.490;2024-03-23T05:24:11;98586.00;;;9.13;62.50
55373;BME280;70018;47.838;16.490;2024-03-23T05:26:38;98580.50;;;9.10;63.21
55373;BME280;70018;47.838;16.490;2024-03-23T05:29:03;98573.47;;;9.12;63.31
55373;BME280;70018;47.838;16.490;2024-03-23T05:31:31;98563.31;;;9.16;63.05
55373;BME280;70018;47.838;16.490;2024-03-23T05:33:57;98567.00;;;9.31;63.37
55373;BME280;70018;47.838;16.490;2024-03-23T05:36:23;98566.75;;;9.43;62.86
55373;BME280;70018;47.838;16.490;2024-03-23T05:38:49;98566.81;;;9.46;63.23
55373;BME280;70018;47.838;16.490;2024-03-23T05:41:15;98570.03;;;9.52;62.96
55373;BME280;70018;47.838;16.490;2024-03-23T05:43:41;98568.50;;;9.54;63.34
55373;BME280;70018;47.838;16.490;2024-03-23T05:46:07;98576.41;;;9.59;62.90
55373;BME280;70018;47.838;16.490;2024-03-23T05:48:34;98572.59;;;9.71;63.43
55373;BME280;70018;47.838;16.490;2024-03-23T05:51:00;98578.91;;;9.75;63.92
55373;BME280;70018;47.838;16.490;2024-03-23T05:53:26;98574.25;;;9.79;63.72
55373;BME280;70018;47.838;16.490;2024-03-23T05:56:00;98576.81;;;9.98;62.96
55373;BME280;70018;47.838;16.490;2024-03-23T05:58:29;98579.16;;;9.96;63.89
55373;BME280;70018;47.838;16.490;2024-03-23T06:01:01;98588.22;;;10.00;63.84
55373;BME280;70018;47.838;16.490;2024-03-23T06:03:28;98584.06;;;10.13;63.66
55373;BME280;70018;47.838;16.490;2024-03-23T06:05:55;98579.03;;;10.22;63.69
55373;BME280;70018;47.838;16.490;2024-03-23T06:08:21;98574.84;;;10.39;63.58
55373;BME280;70018;47.838;16.490;2024-03-23T06:10:47;98584.31;;;10.42;63.51
55373;BME280;70018;47.838;16.490;2024-03-23T06:13:13;98589.22;;;10.66;63.33
55373;BME280;70018;47.838;16.490;2024-03-23T06:15:39;98585.00;;;10.82;63.55
55373;BME280;70018;47.838;16.490;2024-03-23T06:18:05;98586.72;;;11.01;63.23
55373;BME280;70018;47.838;16.490;2024-03-23T06:20:33;98578.47;;;11.08;63.17
55373;BME280;70018;47.838;16.490;2024-03-23T06:23:02;98576.41;;;10.91;63.80
55373;BME280;70018;47.838;16.490;2024-03-23T06:25:29;98576.78;;;10.89;64.05
55373;BME280;70018;47.838;16.490;2024-03-23T06:27:55;98567.03;;;10.99;64.11
55373;BME280;70018;47.838;16.490;2024-03-23T06:30:20;98577.31;;;11.13;63.41
55373;BME280;70018;47.838;16.490;2024-03-23T06:32:46;98570.34;;;11.36;63.20
55373;BME280;70018;47.838;16.490;2024-03-23T06:35:12;98570.03;;;11.62;63.03
55373;BME280;70018;47.838;16.490;2024-03-23T06:37:37;98565.78;;;11.69;63.14
55373;BME280;70018;47.838;16.490;2024-03-23T06:40:05;98563.03;;;11.79;62.90
55373;BME280;70018;47.838;16.490;2024-03-23T06:42:34;98551.22;;;11.89;62.30
55373;BME280;70018;47.838;16.490;2024-03-23T06:44:59;98563.50;;;12.20;61.85
55373;BME280;70018;47.838;16.490;2024-03-23T06:47:25;98566.66;;;12.64;60.83
55373;BME280;70018;47.838;16.490;2024-03-23T06:49:51;98563.50;;;12.83;60.97
55373;BME280;70018;47.838;16.490;2024-03-23T06:52:16;98552.88;;;12.61;61.55
55373;BME280;70018;47.838;16.490;2024-03-23T06:54:42;98560.34;;;12.60;61.34
55373;BME280;70018;47.838;16.490;2024-03-23T06:57:11;98553.25;;;12.56;61.80
55373;BME280;70018;47.838;16.490;2024-03-23T06:59:37;98558.41;;;12.54;61.57
55373;BME280;70018;47.838;16.490;2024-03-23T07:02:05;98547.75;;;12.45;61.85
55373;BME280;70018;47.838;16.490;2024-03-23T07:04:30;98552.44;;;12.52;61.71
55373;BME280;70018;47.838;16.490;2024-03-23T07:06:56;98551.28;;;12.63;61.88
55373;BME280;70018;47.838;16.490;2024-03-23T07:09:22;98554.44;;;12.65;61.18
55373;BME280;70018;47.838;16.490;2024-03-23T07:11:53;98556.78;;;12.77;61.44
55373;BME280;70018;47.838;16.490;2024-03-23T07:14:20;98559.16;;;12.68;62.17
55373;BME280;70018;47.838;16.490;2024-03-23T07:16:45;98552.84;;;12.68;61.70
55373;BME280;70018;47.838;16.490;2024-03-23T07:19:11;98554.81;;;12.60;62.05
55373;BME280;70018;47.838;16.490;2024-03-23T07:21:37;98554.44;;;12.58;62.15
55373;BME280;70018;47.838;16.490;2024-03-23T07:24:02;98559.97;;;12.51;62.09
55373;BME280;70018;47.838;16.490;2024-03-23T07:26:28;98557.59;;;12.32;62.39
55373;BME280;70018;47.838;16.490;2024-03-23T07:28:54;98552.06;;;12.39;62.90
55373;BME280;70018;47.838;16.490;2024-03-23T07:31:19;98556.03;;;12.45;61.69
55373;BME280;70018;47.838;16.490;2024-03-23T07:33:48;98544.59;;;12.43;62.73
55373;BME280;70018;47.838;16.490;2024-03-23T07:36:14;98542.22;;;12.38;62.78
55373;BME280;70018;47.838;16.490;2024-03-23T07:38:41;98532.34;;;12.44;62.21
55373;BME280;70018;47.838;16.490;2024-03-23T07:41:11;98545.75;;;12.49;62.65
55373;BME280;70018;47.838;16.490;2024-03-23T07:43:38;98538.66;;;12.55;62.71
55373;BME280;70018;47.838;16.490;2024-03-23T07:46:05;98531.94;;;12.49;62.76
55373;BME280;70018;47.838;16.490;2024-03-23T07:48:30;98522.50;;;12.54;62.15
55373;BME280;70018;47.838;16.490;2024-03-23T07:53:27;98516.97;;;12.43;62.84
55373;BME280;70018;47.838;16.490;2024-03-23T07:56:08;98518.16;;;12.46;62.92
55373;BME280;70018;47.838;16.490;2024-03-23T07:58:35;98514.97;;;12.65;62.32
55373;BME280;70018;47.838;16.490;2024-03-23T08:01:19;98523.63;;;12.77;62.77
55373;BME280;70018;47.838;16.490;2024-03-23T08:03:45;98514.88;;;12.97;61.93
55373;BME280;70018;47.838;16.490;2024-03-23T08:06:16;98519.63;;;13.10;61.71
55373;BME280;70018;47.838;16.490;2024-03-23T08:08:45;98499.88;;;13.12;61.92
55373;BME280;70018;47.838;16.490;2024-03-23T08:11:11;98514.06;;;13.14;62.17
55373;BME280;70018;47.838;16.490;2024-03-23T08:13:39;98503.84;;;13.11;61.66
55373;BME280;70018;47.838;16.490;2024-03-23T08:16:05;98504.97;;;13.17;61.49
55373;BME280;70018;47.838;16.490;2024-03-23T08:18:31;98498.66;;;13.16;62.20
55373;BME280;70018;47.838;16.490;2024-03-23T08:20:58;98501.84;;;12.97;62.55
55373;BME280;70018;47.838;16.490;2024-03-23T08:23:25;98505.06;;;12.74;62.76
55373;BME280;70018;47.838;16.490;2024-03-23T08:25:51;98511.84;;;12.49;63.52
55373;BME280;70018;47.838;16.490;2024-03-23T08:28:17;98505.94;;;12.01;64.01
55373;BME280;70018;47.838;16.490;2024-03-23T08:30:43;98496.84;;;11.90;64.95
55373;BME280;70018;47.838;16.490;2024-03-23T08:33:09;98485.41;;;12.30;63.84
55373;BME280;70018;47.838;16.490;2024-03-23T08:35:35;98480.94;;;12.96;63.14
55373;BME280;70018;47.838;16.490;2024-03-23T08:38:00;98473.69;;;13.41;62.41
55373;BME280;70018;47.838;16.490;2024-03-23T08:40:26;98473.34;;;13.90;61.05
55373;BME280;70018;47.838;16.490;2024-03-23T08:42:52;98460.91;;;14.12;60.42
55373;BME280;70018;47.838;16.490;2024-03-23T08:45:17;98454.72;;;14.46;59.75
55373;BME280;70018;47.838;16.490;2024-03-23T08:47:43;98459.13;;;14.77;58.85
55373;BME280;70018;47.838;16.490;2024-03-23T08:50:09;98448.53;;;15.02;57.79
55373;BME280;70018;47.838;16.490;2024-03-23T08:52:35;98441.50;;;14.94;57.28
55373;BME280;70018;47.838;16.490;2024-03-23T08:55:00;98425.66;;;14.95;57.15
55373;BME280;70018;47.838;16.490;2024-03-23T08:57:26;98425.03;;;15.14;57.28
55373;BME280;70018;47.838;16.490;2024-03-23T08:59:52;98429.19;;;15.29;57.12
55373;BME280;70018;47.838;16.490;2024-03-23T09:02:18;98426.34;;;15.89;56.30
55373;BME280;70018;47.838;16.490;2024-03-23T09:04:44;98418.78;;;16.36;55.25
55373;BME280;70018;47.838;16.490;2024-03-23T09:07:10;98416.72;;;16.63;54.81
55373;BME280;70018;47.838;16.490;2024-03-23T09:09:38;98413.38;;;16.92;54.60
55373;BME280;70018;47.838;16.490;2024-03-23T09:12:05;98405.53;;;17.06;54.45
55373;BME280;70018;47.838;16.490;2024-03-23T09:14:33;98404.47;;;16.81;54.67
55373;BME280;70018;47.838;16.490;2024-03-23T09:16:59;98397.69;;;16.82;54.67
55373;BME280;70018;47.838;16.490;2024-03-23T09:19:28;98399.97;;;16.87;54.87
55373;BME280;70018;47.838;16.490;2024-03-23T09:21:53;98402.81;;;17.03;54.25
55373;BME280;70018;47.838;16.490;2024-03-23T09:24:19;98390.38;;;17.27;53.80
55373;BME280;70018;47.838;16.490;2024-03-23T09:26:45;98382.91;;;17.24;53.24
55373;BME280;70018;47.838;16.490;2024-03-23T09:29:10;98376.97;;;17.22;53.56
55373;BME280;70018;47.838;16.490;2024-03-23T09:31:36;98379.78;;;17.38;53.40
55373;BME280;70018;47.838;16.490;2024-03-23T09:34:04;98370.28;;;17.19;53.50
55373;BME280;70018;47.838;16.490;2024-03-23T09:36:29;98370.03;;;16.74;53.99
55373;BME280;70018;47.838;16.490;2024-03-23T09:38:55;98370.63;;;16.43;54.40
55373;BME280;70018;47.838;16.490;2024-03-23T09:41:23;98361.41;;;16.26;54.74
55373;BME280;70018;47.838;16.490;2024-03-23T09:43:52;98357.69;;;16.13;54.75
55373;BME280;70018;47.838;16.490;2024-03-23T09:46:18;98349.53;;;16.45;54.52
55373;BME280;70018;47.838;16.490;2024-03-23T09:48:46;98337.53;;;16.52;54.22
55373;BME280;70018;47.838;16.490;2024-03-23T09:51:12;98337.59;;;16.68;54.13
55373;BME280;70018;47.838;16.490;2024-03-23T09:53:38;98326.56;;;16.64;53.63
55373;BME280;70018;47.838;16.490;2024-03-23T09:56:04;98313.94;;;16.80;53.90
55373;BME280;70018;47.838;16.490;2024-03-23T09:58:30;98312.34;;;16.79;53.95
55373;BME280;70018;47.838;16.490;2024-03-23T10:00:58;98299.69;;;16.78;53.96
55373;BME280;70018;47.838;16.490;2024-03-23T10:03:24;98288.00;;;16.66;53.50
55373;BME280;70018;47.838;16.490;2024-03-23T10:06:03;98279.19;;;16.48;53.94
55373;BME280;70018;47.838;16.490;2024-03-23T10:08:30;98267.78;;;16.43;53.63
55373;BME280;70018;47.838;16.490;2024-03-23T10:10:56;98262.19;;;16.46;52.96
55373;BME280;70018;47.838;16.490;2024-03-23T10:13:27;98245.78;;;16.71;52.79
55373;BME280;70018;47.838;16.490;2024-03-23T10:15:57;98244.09;;;16.94;52.08
55373;BME280;70018;47.838;16.490;2024-03-23T10:18:23;98244.72;;;17.17;51.99
55373;BME280;70018;47.838;16.490;2024-03-23T10:23:31;98246.25;;;18.40;50.27
55373;BME280;70018;47.838;16.490;2024-03-23T10:26:20;98248.34;;;18.78;50.28
55373;BME280;70018;47.838;16.490;2024-03-23T10:28:54;98250.34;;;18.64;50.11
55373;BME280;70018;47.838;16.490;2024-03-23T10:31:23;98263.19;;;18.62;50.52
55373;BME280;70018;47.838;16.490;2024-03-23T10:33:49;98257.72;;;18.42;51.00
55373;BME280;70018;47.838;16.490;2024-03-23T10:36:15;98258.34;;;18.21;51.21
55373;BME280;70018;47.838;16.490;2024-03-23T10:38:43;98254.78;;;17.92;51.50
55373;BME280;70018;47.838;16.490;2024-03-23T10:41:10;98244.28;;;17.67;52.50
55373;BME280;70018;47.838;16.490;2024-03-23T10:43:37;98247.44;;;17.53;52.76
55373;BME280;70018;47.838;16.490;2024-03-23T10:46:04;98240.09;;;17.11;53.08
55373;BME280;70018;47.838;16.490;2024-03-23T10:48:31;98221.34;;;17.15;52.92
55373;BME280;70018;47.838;16.490;2024-03-23T10:50:57;98213.84;;;17.28;52.80
55373;BME280;70018;47.838;16.490;2024-03-23T10:53:26;98216.47;;;17.19;52.97
55373;BME280;70018;47.838;16.490;2024-03-23T10:55:52;98206.53;;;17.18;53.09
55373;BME280;70018;47.838;16.490;2024-03-23T10:58:23;98209.22;;;17.37;53.00
55373;BME280;70018;47.838;16.490;2024-03-23T11:00:50;98205.41;;;17.64;52.31
55373;BME280;70018;47.838;16.490;2024-03-23T11:03:45;98209.63;;;17.84;52.20
55373;BME280;70018;47.838;16.490;2024-03-23T11:06:37;98197.09;;;17.76;51.59
55373;BME280;70018;47.838;16.490;2024-03-23T11:09:04;98188.13;;;17.97;51.37
55373;BME280;70018;47.838;16.490;2024-03-23T11:11:49;98189.13;;;18.20;50.95
55373;BME280;70018;47.838;16.490;2024-03-23T11:14:22;98181.72;;;18.13;50.34
55373;BME280;70018;47.838;16.490;2024-03-23T11:17:08;98186.63;;;17.80;49.98
55373;BME280;70018;47.838;16.490;2024-03-23T11:19:36;98191.22;;;17.58;51.07
55373;BME280;70018;47.838;16.490;2024-03-23T11:22:03;98179.41;;;17.83;50.78
55373;BME280;70018;47.838;16.490;2024-03-23T11:24:29;98181.91;;;17.93;50.62
55373;BME280;70018;47.838;16.490;2024-03-23T11:26:54;98181.16;;;18.06;50.55
55373;BME280;70018;47.838;16.490;2024-03-23T11:29:20;98182.97;;;18.53;50.04
55373;BME280;70018;47.838;16.490;2024-03-23T11:31:53;98172.59;;;18.79;49.31
55373;BME280;70018;47.838;16.490;2024-03-23T11:34:19;98184.66;;;18.76;49.13
55373;BME280;70018;47.838;16.490;2024-03-23T11:36:46;98186.09;;;18.93;49.45
55373;BME280;70018;47.838;16.490;2024-03-23T11:39:17;98175.56;;;19.22;49.11
55373;BME280;70018;47.838;16.490;2024-03-23T11:41:48;98175.44;;;19.39;48.81
55373;BME280;70018;47.838;16.490;2024-03-23T11:44:22;98167.47;;;19.50;48.74
55373;BME280;70018;47.838;16.490;2024-03-23T11:46:49;98164.19;;;19.64;48.24
55373;BME280;70018;47.838;16.490;2024-03-23T11:49:28;98176.97;;;19.86;48.13
55373;BME280;70018;47.838;16.490;2024-03-23T11:51:56;98167.06;;;19.94;47.44
55373;BME280;70018;47.838;16.490;2024-03-23T11:54:26;98150.94;;;20.20;47.62
55373;BME280;70018;47.838;16.490;2024-03-23T11:57:02;98141.19;;;20.46;46.88
55373;BME280;70018;47.838;16.490;2024-03-23T11:59:36;98136.94;;;20.73;46.48
55373;BME280;70018;47.838;16.490;2024-03-23T12:02:10;98132.69;;;20.99;46.04
55373;BME280;70018;47.838;16.490;2024-03-23T12:04:42;98129.00;;;21.20;45.15
55373;BME280;70018;47.838;16.490;2024-03-23T12:07:18;98126.88;;;21.42;43.06
55373;BME280;70018;47.838;16.490;2024-03-23T12:09:45;98121.72;;;21.59;43.37
55373;BME280;70018;47.838;16.490;2024-03-23T12:12:15;98117.69;;;21.87;42.73
55373;BME280;70018;47.838;16.490;2024-03-23T12:14:44;98110.06;;;21.97;43.02
55373;BME280;70018;47.838;16.490;2024-03-23T12:17:14;98115.19;;;22.07;42.83
55373;BME280;70018;47.838;16.490;2024-03-23T12:19:41;98105.69;;;22.05;42.47
55373;BME280;70018;47.838;16.490;2024-03-23T12:22:08;98098.38;;;21.98;41.84
55373;BME280;70018;47.838;16.490;2024-03-23T12:24:34;98101.19;;;21.98;41.75
55373;BME280;70018;47.838;16.490;2024-03-23T12:27:04;98098.31;;;22.25;41.38
55373;BME280;70018;47.838;16.490;2024-03-23T12:29:31;98081.00;;;22.36;40.35
55373;BME280;70018;47.838;16.490;2024-03-23T12:32:00;98090.50;;;22.38;39.64
55373;BME280;70018;47.838;16.490;2024-03-23T12:34:26;98078.81;;;22.31;40.13
55373;BME280;70018;47.838;16.490;2024-03-23T12:36:52;98077.41;;;22.26;39.44
55373;BME280;70018;47.838;16.490;2024-03-23T12:39:18;98071.88;;;22.50;39.37
55373;BME280;70018;47.838;16.490;2024-03-23T12:41:44;98075.22;;;22.72;38.87
55373;BME280;70018;47.838;16.490;2024-03-23T12:44:10;98070.03;;;22.80;38.94
55373;BME280;70018;47.838;16.490;2024-03-23T12:46:40;98077.22;;;22.81;39.09
55373;BME280;70018;47.838;16.490;2024-03-23T12:49:06;98069.56;;;22.81;37.51
55373;BME280;70018;47.838;16.490;2024-03-23T12:51:32;98067.19;;;22.89;37.51
55373;BME280;70018;47.838;16.490;2024-03-23T12:53:58;98071.38;;;22.93;37.48
55373;BME280;70018;47.838;16.490;2024-03-23T12:56:24;98062.22;;;23.07;37.55
55373;BME280;70018;47.838;16.490;2024-03-23T12:58:50;98057.97;;;23.12;36.50
55373;BME280;70018;47.838;16.490;2024-03-23T13:01:19;98053.31;;;23.09;36.15
55373;BME280;70018;47.838;16.490;2024-03-23T13:03:49;98060.25;;;22.99;36.45
55373;BME280;70018;47.838;16.490;2024-03-23T13:06:15;98063.56;;;22.97;36.48
55373;BME280;70018;47.838;16.490;2024-03-23T13:08:41;98066.22;;;22.92;35.91
55373;BME280;70018;47.838;16.490;2024-03-23T13:11:08;98072.56;;;23.01;35.60
55373;BME280;70018;47.838;16.490;2024-03-23T13:13:36;98071.06;;;22.68;36.34
55373;BME280;70018;47.838;16.490;2024-03-23T13:16:02;98077.59;;;22.23;36.71
55373;BME280;70018;47.838;16.490;2024-03-23T13:18:32;98073.56;;;22.66;36.00
55373;BME280;70018;47.838;16.490;2024-03-23T13:20:58;98084.31;;;22.67;35.14
55373;BME280;70018;47.838;16.490;2024-03-23T13:23:24;98102.53;;;22.21;35.93
55373;BME280;70018;47.838;16.490;2024-03-23T13:25:54;98180.72;;;21.64;35.86
55373;BME280;70018;47.838;16.490;2024-03-23T13:28:21;98197.00;;;20.07;37.95
55373;BME280;70018;47.838;16.490;2024-03-23T13:30:54;98207.84;;;18.86;39.96
55373;BME280;70018;47.838;16.490;2024-03-23T13:33:20;98194.38;;;18.30;41.11
55373;BME280;70018;47.838;16.490;2024-03-23T13:35:53;98195.28;;;17.37;42.86
55373;BME280;70018;47.838;16.490;2024-03-23T13:38:19;98204.00;;;16.75;44.72
55373;BME280;70018;47.838;16.490;2024-03-23T13:40:53;98211.59;;;16.55;45.46
55373;BME280;70018;47.838;16.490;2024-03-23T13:43:20;98227.69;;;16.44;44.83
55373;BME280;70018;47.838;16.490;2024-03-23T13:45:55;98236.94;;;16.93;44.08
55373;BME280;70018;47.838;16.490;2024-03-23T13:48:23;98228.66;;;16.73;44.76
55373;BME280;70018;47.838;16.490;2024-03-23T13:51:04;98225.41;;;16.58;45.06